sensor_id;sensor_type;location;lat;lon;timestamp;temperature;humidity
871;DHT22;422;51.280;7.236;2023-06-22T00:01:47;21.40;99.90
871;DHT22;422;51.280;7.236;2023-06-22T00:04:14;21.50;99.90
871;DHT22;422;51.280;7.236;2023-06-22T00:06:42;21.50;99.90
871;DHT22;422;51.280;7.236;2023-06-22T00:09:09;21.40;99.90
871;DHT22;422;51.280;7.236;2023-06-22T00:11:36;21.30;99.90
871;DHT22;422;51.280;7.236;2023-06-22T00:14:05;21.30;99.90
871;DHT22;422;51.280;7.236;2023-06-22T00:16:33;21.30;99.90
871;DHT22;422;51.280;7.236;2023-06-22T00:19:00;21.30;99.90
871;DHT22;422;51.280;7.236;2023-06-22T00:21:29;21.30;99.90
871;DHT22;422;51.280;7.236;2023-06-22T00:23:56;21.20;99.90
871;DHT22;422;51.280;7.236;2023-06-22T00:26:24;21.30;99.90
871;DHT22;422;51.280;7.236;2023-06-22T00:28:51;21.20;99.90
871;DHT22;422;51.280;7.236;2023-06-22T00:31:20;21.20;99.90
871;DHT22;422;51.280;7.236;2023-06-22T00:33:47;21.20;99.90
871;DHT22;422;51.280;7.236;2023-06-22T00:36:16;21.20;99.90
871;DHT22;422;51.280;7.236;2023-06-22T00:38:44;21.10;99.90
871;DHT22;422;51.280;7.236;2023-06-22T00:41:11;21.10;99.90
871;DHT22;422;51.280;7.236;2023-06-22T00:43:39;21.10;99.90
871;DHT22;422;51.280;7.236;2023-06-22T00:46:07;21.10;99.90
871;DHT22;422;51.280;7.236;2023-06-22T00:48:36;21.00;99.90
871;DHT22;422;51.280;7.236;2023-06-22T00:51:04;21.00;99.90
871;DHT22;422;51.280;7.236;2023-06-22T00:53:31;21.00;99.90
871;DHT22;422;51.280;7.236;2023-06-22T00:56:01;21.00;99.90
871;DHT22;422;51.280;7.236;2023-06-22T00:58:29;21.00;99.90
871;DHT22;422;51.280;7.236;2023-06-22T01:00:57;21.00;99.90
871;DHT22;422;51.280;7.236;2023-06-22T01:03:25;21.10;99.90
871;DHT22;422;51.280;7.236;2023-06-22T01:05:58;21.10;99.90
871;DHT22;422;51.280;7.236;2023-06-22T01:08:33;21.10;99.90
871;DHT22;422;51.280;7.236;2023-06-22T01:11:07;21.20;99.90
871;DHT22;422;51.280;7.236;2023-06-22T01:13:43;21.10;99.90
871;DHT22;422;51.280;7.236;2023-06-22T01:16:26;21.10;99.90
871;DHT22;422;51.280;7.236;2023-06-22T01:18:57;21.10;99.90
871;DHT22;422;51.280;7.236;2023-06-22T01:21:28;21.10;99.90
871;DHT22;422;51.280;7.236;2023-06-22T01:24:06;21.10;99.90
871;DHT22;422;51.280;7.236;2023-06-22T01:26:42;21.10;99.90
871;DHT22;422;51.280;7.236;2023-06-22T01:29:15;21.00;99.90
871;DHT22;422;51.280;7.236;2023-06-22T01:31:44;21.00;99.90
871;DHT22;422;51.280;7.236;2023-06-22T01:34:12;20.90;99.90
871;DHT22;422;51.280;7.236;2023-06-22T01:36:41;20.90;99.90
871;DHT22;422;51.280;7.236;2023-06-22T01:39:09;20.90;99.90
871;DHT22;422;51.280;7.236;2023-06-22T01:41:38;20.90;99.90
871;DHT22;422;51.280;7.236;2023-06-22T01:44:06;20.90;99.90
871;DHT22;422;51.280;7.236;2023-06-22T01:46:35;20.80;99.90
871;DHT22;422;51.280;7.236;2023-06-22T01:49:03;20.80;99.90
871;DHT22;422;51.280;7.236;2023-06-22T01:51:31;20.80;99.90
871;DHT22;422;51.280;7.236;2023-06-22T01:53:58;20.70;99.90
871;DHT22;422;51.280;7.236;2023-06-22T01:56:26;20.70;99.90
871;DHT22;422;51.280;7.236;2023-06-22T01:58:59;20.70;99.90
871;DHT22;422;51.280;7.236;2023-06-22T02:01:31;20.70;99.90
871;DHT22;422;51.280;7.236;2023-06-22T02:04:05;20.60;99.90
871;DHT22;422;51.280;7.236;2023-06-22T02:06:36;20.60;99.90
871;DHT22;422;51.280;7.236;2023-06-22T02:09:08;20.60;99.90
871;DHT22;422;51.280;7.236;2023-06-22T02:11:37;20.50;99.90
871;DHT22;422;51.280;7.236;2023-06-22T02:14:06;20.50;99.90
871;DHT22;422;51.280;7.236;2023-06-22T02:16:34;20.40;99.90
871;DHT22;422;51.280;7.236;2023-06-22T02:19:04;20.40;99.90
871;DHT22;422;51.280;7.236;2023-06-22T02:21:34;20.40;99.90
871;DHT22;422;51.280;7.236;2023-06-22T02:24:01;20.30;99.90
871;DHT22;422;51.280;7.236;2023-06-22T02:26:29;20.30;99.90
871;DHT22;422;51.280;7.236;2023-06-22T02:28:57;20.30;99.90
871;DHT22;422;51.280;7.236;2023-06-22T02:31:24;20.20;99.90
871;DHT22;422;51.280;7.236;2023-06-22T02:33:56;20.20;99.90
871;DHT22;422;51.280;7.236;2023-06-22T02:36:25;20.20;99.90
871;DHT22;422;51.280;7.236;2023-06-22T02:38:56;20.10;99.90
871;DHT22;422;51.280;7.236;2023-06-22T02:41:26;20.10;99.90
871;DHT22;422;51.280;7.236;2023-06-22T02:43:53;20.10;99.90
871;DHT22;422;51.280;7.236;2023-06-22T02:46:21;20.00;99.90
871;DHT22;422;51.280;7.236;2023-06-22T02:48:48;20.00;99.90
871;DHT22;422;51.280;7.236;2023-06-22T02:51:15;19.90;99.90
871;DHT22;422;51.280;7.236;2023-06-22T02:53:44;19.90;99.90
871;DHT22;422;51.280;7.236;2023-06-22T02:56:28;19.90;99.90
871;DHT22;422;51.280;7.236;2023-06-22T02:58:56;19.90;99.90
871;DHT22;422;51.280;7.236;2023-06-22T03:01:26;19.90;99.90
871;DHT22;422;51.280;7.236;2023-06-22T03:03:55;19.90;99.90
871;DHT22;422;51.280;7.236;2023-06-22T03:06:23;19.90;99.90
871;DHT22;422;51.280;7.236;2023-06-22T03:08:58;19.90;99.90
871;DHT22;422;51.280;7.236;2023-06-22T03:11:26;19.90;99.90
871;DHT22;422;51.280;7.236;2023-06-22T03:13:53;19.90;99.90
871;DHT22;422;51.280;7.236;2023-06-22T03:16:20;20.00;99.90
871;DHT22;422;51.280;7.236;2023-06-22T03:18:47;20.00;99.90
871;DHT22;422;51.280;7.236;2023-06-22T03:21:15;20.00;99.90
871;DHT22;422;51.280;7.236;2023-06-22T03:23:42;20.00;99.90
871;DHT22;422;51.280;7.236;2023-06-22T03:26:11;20.00;99.90
871;DHT22;422;51.280;7.236;2023-06-22T03:28:38;20.00;99.90
871;DHT22;422;51.280;7.236;2023-06-22T03:31:05;20.00;99.90
871;DHT22;422;51.280;7.236;2023-06-22T03:33:33;20.00;99.90
871;DHT22;422;51.280;7.236;2023-06-22T03:36:00;19.90;99.90
871;DHT22;422;51.280;7.236;2023-06-22T03:38:28;19.90;99.90
871;DHT22;422;51.280;7.236;2023-06-22T03:40:55;19.90;99.90
871;DHT22;422;51.280;7.236;2023-06-22T03:43:23;19.90;99.90
871;DHT22;422;51.280;7.236;2023-06-22T03:45:51;20.00;99.90
871;DHT22;422;51.280;7.236;2023-06-22T03:48:18;20.00;99.90
871;DHT22;422;51.280;7.236;2023-06-22T03:50:45;20.00;99.90
871;DHT22;422;51.280;7.236;2023-06-22T03:53:12;20.10;99.90
871;DHT22;422;51.280;7.236;2023-06-22T03:55:47;20.00;99.90
871;DHT22;422;51.280;7.236;2023-06-22T03:58:15;20.10;99.90
871;DHT22;422;51.280;7.236;2023-06-22T04:00:46;20.10;99.90
871;DHT22;422;51.280;7.236;2023-06-22T04:03:14;20.10;99.90
871;DHT22;422;51.280;7.236;2023-06-22T04:05:41;20.20;99.90
871;DHT22;422;51.280;7.236;2023-06-22T04:08:08;20.20;99.90
871;DHT22;422;51.280;7.236;2023-06-22T04:10:36;20.20;99.90
871;DHT22;422;51.280;7.236;2023-06-22T04:13:03;20.20;99.90
871;DHT22;422;51.280;7.236;2023-06-22T04:15:30;20.30;99.90
871;DHT22;422;51.280;7.236;2023-06-22T04:17:59;20.40;99.90
871;DHT22;422;51.280;7.236;2023-06-22T04:20:26;20.30;99.90
871;DHT22;422;51.280;7.236;2023-06-22T04:22:53;20.40;99.90
871;DHT22;422;51.280;7.236;2023-06-22T04:25:21;20.40;99.90
871;DHT22;422;51.280;7.236;2023-06-22T04:27:49;20.40;99.90
871;DHT22;422;51.280;7.236;2023-06-22T04:30:16;20.50;99.90
871;DHT22;422;51.280;7.236;2023-06-22T04:32:44;20.40;99.90
871;DHT22;422;51.280;7.236;2023-06-22T04:35:12;20.40;99.90
871;DHT22;422;51.280;7.236;2023-06-22T04:37:41;20.50;99.90
871;DHT22;422;51.280;7.236;2023-06-22T04:40:09;20.50;99.90
871;DHT22;422;51.280;7.236;2023-06-22T04:42:39;20.50;99.90
871;DHT22;422;51.280;7.236;2023-06-22T04:45:07;20.50;99.90
871;DHT22;422;51.280;7.236;2023-06-22T04:47:36;20.50;99.90
871;DHT22;422;51.280;7.236;2023-06-22T04:50:05;20.50;99.90
871;DHT22;422;51.280;7.236;2023-06-22T04:52:34;20.60;99.90
871;DHT22;422;51.280;7.236;2023-06-22T04:55:02;20.60;99.90
871;DHT22;422;51.280;7.236;2023-06-22T04:57:29;20.60;99.90
871;DHT22;422;51.280;7.236;2023-06-22T04:59:58;20.70;99.90
871;DHT22;422;51.280;7.236;2023-06-22T05:02:43;20.70;99.90
871;DHT22;422;51.280;7.236;2023-06-22T05:05:10;20.70;99.90
871;DHT22;422;51.280;7.236;2023-06-22T05:07:42;20.60;99.90
871;DHT22;422;51.280;7.236;2023-06-22T05:10:11;20.60;99.90
871;DHT22;422;51.280;7.236;2023-06-22T05:12:38;20.60;99.90
871;DHT22;422;51.280;7.236;2023-06-22T05:15:07;20.70;99.90
871;DHT22;422;51.280;7.236;2023-06-22T05:17:35;20.70;99.90
871;DHT22;422;51.280;7.236;2023-06-22T05:20:03;20.70;99.90
871;DHT22;422;51.280;7.236;2023-06-22T05:22:32;20.70;99.90
871;DHT22;422;51.280;7.236;2023-06-22T05:25:00;20.80;1.00
871;DHT22;422;51.280;7.236;2023-06-22T05:34:07;21.00;99.90
871;DHT22;422;51.280;7.236;2023-06-22T05:36:34;21.10;99.90
871;DHT22;422;51.280;7.236;2023-06-22T05:39:11;21.10;99.90
871;DHT22;422;51.280;7.236;2023-06-22T05:41:40;21.10;99.90
871;DHT22;422;51.280;7.236;2023-06-22T05:44:07;21.00;99.90
871;DHT22;422;51.280;7.236;2023-06-22T05:46:34;21.20;99.90
871;DHT22;422;51.280;7.236;2023-06-22T05:49:01;21.20;99.90
871;DHT22;422;51.280;7.236;2023-06-22T05:51:28;21.20;99.90
871;DHT22;422;51.280;7.236;2023-06-22T05:53:55;21.30;99.90
871;DHT22;422;51.280;7.236;2023-06-22T05:56:22;21.30;99.90
871;DHT22;422;51.280;7.236;2023-06-22T05:58:51;21.40;99.90
871;DHT22;422;51.280;7.236;2023-06-22T06:01:18;21.40;99.90
871;DHT22;422;51.280;7.236;2023-06-22T06:03:46;21.40;99.90
871;DHT22;422;51.280;7.236;2023-06-22T06:06:15;21.40;99.90
871;DHT22;422;51.280;7.236;2023-06-22T06:08:42;21.50;99.90
871;DHT22;422;51.280;7.236;2023-06-22T06:11:09;21.70;99.90
871;DHT22;422;51.280;7.236;2023-06-22T06:13:36;21.80;1.00
871;DHT22;422;51.280;7.236;2023-06-22T06:16:05;21.90;1.00
871;DHT22;422;51.280;7.236;2023-06-22T06:18:32;21.90;1.00
871;DHT22;422;51.280;7.236;2023-06-22T06:20:59;21.90;1.00
871;DHT22;422;51.280;7.236;2023-06-22T06:23:26;22.00;1.00
871;DHT22;422;51.280;7.236;2023-06-22T06:25:53;22.00;1.00
871;DHT22;422;51.280;7.236;2023-06-22T06:28:20;22.00;1.00
871;DHT22;422;51.280;7.236;2023-06-22T06:30:47;22.00;99.90
871;DHT22;422;51.280;7.236;2023-06-22T06:33:16;22.00;99.90
871;DHT22;422;51.280;7.236;2023-06-22T06:35:43;21.80;99.90
871;DHT22;422;51.280;7.236;2023-06-22T06:38:10;21.80;99.90
871;DHT22;422;51.280;7.236;2023-06-22T06:40:37;21.80;99.90
871;DHT22;422;51.280;7.236;2023-06-22T06:43:05;21.80;1.00
871;DHT22;422;51.280;7.236;2023-06-22T06:45:32;21.70;99.90
871;DHT22;422;51.280;7.236;2023-06-22T06:48:00;21.80;99.90
871;DHT22;422;51.280;7.236;2023-06-22T06:50:29;21.80;99.90
871;DHT22;422;51.280;7.236;2023-06-22T06:52:56;21.80;99.90
871;DHT22;422;51.280;7.236;2023-06-22T06:55:24;21.70;99.90
871;DHT22;422;51.280;7.236;2023-06-22T06:57:52;21.50;99.90
871;DHT22;422;51.280;7.236;2023-06-22T07:00:20;21.50;1.00
871;DHT22;422;51.280;7.236;2023-06-22T07:02:47;21.50;1.00
871;DHT22;422;51.280;7.236;2023-06-22T07:05:14;21.30;1.00
871;DHT22;422;51.280;7.236;2023-06-22T07:07:43;21.40;1.00
871;DHT22;422;51.280;7.236;2023-06-22T07:10:10;21.40;1.00
871;DHT22;422;51.280;7.236;2023-06-22T07:12:37;21.40;1.00
871;DHT22;422;51.280;7.236;2023-06-22T07:15:06;21.50;1.00
871;DHT22;422;51.280;7.236;2023-06-22T07:17:34;21.40;1.00
871;DHT22;422;51.280;7.236;2023-06-22T07:20:01;21.30;1.00
871;DHT22;422;51.280;7.236;2023-06-22T07:22:29;21.20;1.00
871;DHT22;422;51.280;7.236;2023-06-22T07:24:58;21.10;1.00
871;DHT22;422;51.280;7.236;2023-06-22T07:27:25;21.00;41.00
871;DHT22;422;51.280;7.236;2023-06-22T07:29:52;20.80;99.90
871;DHT22;422;51.280;7.236;2023-06-22T07:32:20;20.90;99.90
871;DHT22;422;51.280;7.236;2023-06-22T07:34:48;20.90;99.90
871;DHT22;422;51.280;7.236;2023-06-22T07:37:15;20.90;99.90
871;DHT22;422;51.280;7.236;2023-06-22T07:39:43;20.80;99.90
871;DHT22;422;51.280;7.236;2023-06-22T07:42:11;21.10;1.00
871;DHT22;422;51.280;7.236;2023-06-22T07:44:38;21.30;1.00
871;DHT22;422;51.280;7.236;2023-06-22T07:47:05;21.50;1.00
871;DHT22;422;51.280;7.236;2023-06-22T07:49:33;22.20;1.00
871;DHT22;422;51.280;7.236;2023-06-22T07:52:00;22.90;99.90
871;DHT22;422;51.280;7.236;2023-06-22T07:54:27;22.80;99.90
871;DHT22;422;51.280;7.236;2023-06-22T07:56:54;23.50;99.90
871;DHT22;422;51.280;7.236;2023-06-22T07:59:23;24.10;99.90
871;DHT22;422;51.280;7.236;2023-06-22T08:01:50;24.30;1.00
871;DHT22;422;51.280;7.236;2023-06-22T08:04:17;24.30;1.00
871;DHT22;422;51.280;7.236;2023-06-22T08:06:44;23.90;1.00
871;DHT22;422;51.280;7.236;2023-06-22T08:09:12;24.10;1.00
871;DHT22;422;51.280;7.236;2023-06-22T08:11:39;23.90;1.00
871;DHT22;422;51.280;7.236;2023-06-22T08:14:06;24.40;1.00
871;DHT22;422;51.280;7.236;2023-06-22T08:16:35;25.00;1.00
871;DHT22;422;51.280;7.236;2023-06-22T08:19:02;25.30;1.00
871;DHT22;422;51.280;7.236;2023-06-22T08:21:29;25.30;1.00
871;DHT22;422;51.280;7.236;2023-06-22T08:23:56;25.70;1.00
871;DHT22;422;51.280;7.236;2023-06-22T08:26:23;25.90;1.00
871;DHT22;422;51.280;7.236;2023-06-22T08:28:51;26.20;1.00
871;DHT22;422;51.280;7.236;2023-06-22T08:31:18;26.40;99.90
871;DHT22;422;51.280;7.236;2023-06-22T08:33:47;26.70;1.00
871;DHT22;422;51.280;7.236;2023-06-22T08:36:14;27.00;1.00
871;DHT22;422;51.280;7.236;2023-06-22T08:38:41;27.30;1.00
871;DHT22;422;51.280;7.236;2023-06-22T08:41:09;27.40;1.00
871;DHT22;422;51.280;7.236;2023-06-22T08:43:36;27.60;1.00
871;DHT22;422;51.280;7.236;2023-06-22T08:46:03;28.00;1.00
871;DHT22;422;51.280;7.236;2023-06-22T08:48:30;28.30;1.00
871;DHT22;422;51.280;7.236;2023-06-22T08:50:58;28.40;1.00
871;DHT22;422;51.280;7.236;2023-06-22T08:53:25;29.00;99.90
871;DHT22;422;51.280;7.236;2023-06-22T08:55:52;29.00;99.90
871;DHT22;422;51.280;7.236;2023-06-22T08:58:20;28.80;99.90
871;DHT22;422;51.280;7.236;2023-06-22T09:00:48;29.30;99.90
871;DHT22;422;51.280;7.236;2023-06-22T09:03:16;29.60;1.00
871;DHT22;422;51.280;7.236;2023-06-22T09:05:44;29.60;1.00
871;DHT22;422;51.280;7.236;2023-06-22T09:08:13;29.90;99.90
871;DHT22;422;51.280;7.236;2023-06-22T09:10:40;30.20;1.00
871;DHT22;422;51.280;7.236;2023-06-22T09:13:07;30.30;1.00
871;DHT22;422;51.280;7.236;2023-06-22T09:15:35;30.60;1.00
871;DHT22;422;51.280;7.236;2023-06-22T09:18:02;30.50;1.00
871;DHT22;422;51.280;7.236;2023-06-22T09:20:30;30.30;1.00
871;DHT22;422;51.280;7.236;2023-06-22T09:22:57;30.80;99.90
871;DHT22;422;51.280;7.236;2023-06-22T09:25:25;31.30;64.60
871;DHT22;422;51.280;7.236;2023-06-22T09:27:52;31.50;1.00
871;DHT22;422;51.280;7.236;2023-06-22T09:30:21;31.20;75.70
871;DHT22;422;51.280;7.236;2023-06-22T09:32:49;30.50;1.00
871;DHT22;422;51.280;7.236;2023-06-22T09:35:17;29.60;1.00
871;DHT22;422;51.280;7.236;2023-06-22T09:37:44;29.10;99.90
871;DHT22;422;51.280;7.236;2023-06-22T09:40:12;29.00;99.90
871;DHT22;422;51.280;7.236;2023-06-22T09:42:43;29.40;99.90
871;DHT22;422;51.280;7.236;2023-06-22T09:45:10;30.10;99.90
871;DHT22;422;51.280;7.236;2023-06-22T09:47:37;30.10;1.00
871;DHT22;422;51.280;7.236;2023-06-22T09:50:05;29.80;1.00
871;DHT22;422;51.280;7.236;2023-06-22T09:52:33;29.50;1.00
871;DHT22;422;51.280;7.236;2023-06-22T09:55:00;29.50;1.00
871;DHT22;422;51.280;7.236;2023-06-22T09:57:29;29.70;1.00
871;DHT22;422;51.280;7.236;2023-06-22T09:59:58;29.40;1.00
871;DHT22;422;51.280;7.236;2023-06-22T10:02:25;28.90;99.90
871;DHT22;422;51.280;7.236;2023-06-22T10:04:52;28.90;99.90
871;DHT22;422;51.280;7.236;2023-06-22T10:07:19;28.90;1.00
871;DHT22;422;51.280;7.236;2023-06-22T10:09:46;29.20;1.00
871;DHT22;422;51.280;7.236;2023-06-22T10:12:13;29.30;99.90
871;DHT22;422;51.280;7.236;2023-06-22T10:14:41;29.80;1.00
871;DHT22;422;51.280;7.236;2023-06-22T10:17:09;30.20;1.00
871;DHT22;422;51.280;7.236;2023-06-22T10:19:36;30.10;1.00
871;DHT22;422;51.280;7.236;2023-06-22T10:22:04;29.90;1.00
871;DHT22;422;51.280;7.236;2023-06-22T10:24:32;29.90;1.00
871;DHT22;422;51.280;7.236;2023-06-22T10:26:59;29.70;1.00
871;DHT22;422;51.280;7.236;2023-06-22T10:29:26;29.70;1.00
871;DHT22;422;51.280;7.236;2023-06-22T10:31:54;29.70;1.00
871;DHT22;422;51.280;7.236;2023-06-22T10:34:22;29.00;99.90
871;DHT22;422;51.280;7.236;2023-06-22T10:36:50;28.50;99.90
871;DHT22;422;51.280;7.236;2023-06-22T10:39:17;28.60;99.90
871;DHT22;422;51.280;7.236;2023-06-22T10:41:44;28.50;99.90
871;DHT22;422;51.280;7.236;2023-06-22T10:44:11;28.50;99.90
871;DHT22;422;51.280;7.236;2023-06-22T10:46:39;28.40;99.90
871;DHT22;422;51.280;7.236;2023-06-22T10:49:06;28.20;99.90
871;DHT22;422;51.280;7.236;2023-06-22T10:51:35;27.80;99.90
871;DHT22;422;51.280;7.236;2023-06-22T10:54:02;27.60;99.90
871;DHT22;422;51.280;7.236;2023-06-22T10:56:30;27.20;99.90
871;DHT22;422;51.280;7.236;2023-06-22T10:58:59;26.90;99.90
871;DHT22;422;51.280;7.236;2023-06-22T11:01:27;26.90;99.90
871;DHT22;422;51.280;7.236;2023-06-22T11:03:56;26.80;99.90
871;DHT22;422;51.280;7.236;2023-06-22T11:06:23;26.80;99.90
871;DHT22;422;51.280;7.236;2023-06-22T11:08:52;26.70;99.90
871;DHT22;422;51.280;7.236;2023-06-22T11:11:20;26.60;99.90
871;DHT22;422;51.280;7.236;2023-06-22T11:13:47;26.50;99.90
871;DHT22;422;51.280;7.236;2023-06-22T11:16:14;26.20;99.90
871;DHT22;422;51.280;7.236;2023-06-22T11:18:41;25.80;1.00
871;DHT22;422;51.280;7.236;2023-06-22T11:21:09;25.60;1.00
871;DHT22;422;51.280;7.236;2023-06-22T11:23:36;25.50;1.00
871;DHT22;422;51.280;7.236;2023-06-22T11:26:04;25.30;1.00
871;DHT22;422;51.280;7.236;2023-06-22T11:28:32;24.90;1.00
871;DHT22;422;51.280;7.236;2023-06-22T11:30:59;24.40;99.90
871;DHT22;422;51.280;7.236;2023-06-22T11:33:26;24.00;1.00
871;DHT22;422;51.280;7.236;2023-06-22T11:35:53;23.70;77.10
871;DHT22;422;51.280;7.236;2023-06-22T11:38:22;23.40;99.90
871;DHT22;422;51.280;7.236;2023-06-22T11:40:49;23.20;1.00
871;DHT22;422;51.280;7.236;2023-06-22T11:43:17;23.20;1.00
871;DHT22;422;51.280;7.236;2023-06-22T11:45:44;23.30;99.90
871;DHT22;422;51.280;7.236;2023-06-22T11:48:11;23.40;99.90
871;DHT22;422;51.280;7.236;2023-06-22T11:50:39;23.50;99.90
871;DHT22;422;51.280;7.236;2023-06-22T11:53:06;23.60;1.00
871;DHT22;422;51.280;7.236;2023-06-22T11:55:34;23.40;1.00
871;DHT22;422;51.280;7.236;2023-06-22T11:58:01;23.30;99.90
871;DHT22;422;51.280;7.236;2023-06-22T12:00:31;23.10;99.90
871;DHT22;422;51.280;7.236;2023-06-22T12:02:58;23.10;99.90
871;DHT22;422;51.280;7.236;2023-06-22T12:05:27;23.20;28.70
871;DHT22;422;51.280;7.236;2023-06-22T12:07:54;23.30;1.00
871;DHT22;422;51.280;7.236;2023-06-22T12:10:22;23.40;1.00
871;DHT22;422;51.280;7.236;2023-06-22T12:12:50;23.50;1.00
871;DHT22;422;51.280;7.236;2023-06-22T12:15:18;23.60;1.00
871;DHT22;422;51.280;7.236;2023-06-22T12:17:46;23.60;99.90
871;DHT22;422;51.280;7.236;2023-06-22T12:20:15;23.50;99.90
871;DHT22;422;51.280;7.236;2023-06-22T12:22:42;23.50;99.90
871;DHT22;422;51.280;7.236;2023-06-22T12:25:09;23.50;1.00
871;DHT22;422;51.280;7.236;2023-06-22T12:27:37;23.40;99.90
871;DHT22;422;51.280;7.236;2023-06-22T12:30:05;23.30;99.90
871;DHT22;422;51.280;7.236;2023-06-22T12:32:33;23.10;1.00
871;DHT22;422;51.280;7.236;2023-06-22T12:35:03;23.20;99.90
871;DHT22;422;51.280;7.236;2023-06-22T12:37:30;23.30;1.00
871;DHT22;422;51.280;7.236;2023-06-22T12:39:59;23.50;1.00
871;DHT22;422;51.280;7.236;2023-06-22T12:42:26;23.70;1.00
871;DHT22;422;51.280;7.236;2023-06-22T12:44:54;23.80;1.00
871;DHT22;422;51.280;7.236;2023-06-22T12:47:21;24.00;99.90
871;DHT22;422;51.280;7.236;2023-06-22T12:49:49;24.20;1.00
871;DHT22;422;51.280;7.236;2023-06-22T12:52:18;24.30;1.00
871;DHT22;422;51.280;7.236;2023-06-22T12:54:45;24.30;1.00
871;DHT22;422;51.280;7.236;2023-06-22T12:57:13;24.20;1.00
871;DHT22;422;51.280;7.236;2023-06-22T12:59:40;24.00;99.90
871;DHT22;422;51.280;7.236;2023-06-22T13:02:08;23.80;99.90
871;DHT22;422;51.280;7.236;2023-06-22T13:04:35;23.70;99.90
871;DHT22;422;51.280;7.236;2023-06-22T13:07:03;23.70;99.90
871;DHT22;422;51.280;7.236;2023-06-22T13:09:32;23.70;31.20
871;DHT22;422;51.280;7.236;2023-06-22T13:12:02;24.10;1.00
871;DHT22;422;51.280;7.236;2023-06-22T13:14:30;24.10;1.00
871;DHT22;422;51.280;7.236;2023-06-22T13:16:57;24.10;49.80
871;DHT22;422;51.280;7.236;2023-06-22T13:19:25;24.20;99.90
871;DHT22;422;51.280;7.236;2023-06-22T13:21:54;24.70;1.00
871;DHT22;422;51.280;7.236;2023-06-22T13:24:22;24.70;76.80
871;DHT22;422;51.280;7.236;2023-06-22T13:26:54;25.10;1.00
871;DHT22;422;51.280;7.236;2023-06-22T13:29:21;25.40;1.00
871;DHT22;422;51.280;7.236;2023-06-22T13:31:49;25.90;1.00
871;DHT22;422;51.280;7.236;2023-06-22T13:34:16;26.10;99.90
871;DHT22;422;51.280;7.236;2023-06-22T13:36:43;25.90;99.90
871;DHT22;422;51.280;7.236;2023-06-22T13:49:37;26.40;99.90
871;DHT22;422;51.280;7.236;2023-06-22T13:52:05;26.10;25.00
871;DHT22;422;51.280;7.236;2023-06-22T13:54:36;26.30;48.90
871;DHT22;422;51.280;7.236;2023-06-22T13:57:04;26.50;1.00
871;DHT22;422;51.280;7.236;2023-06-22T13:59:31;26.50;1.00
871;DHT22;422;51.280;7.236;2023-06-22T14:01:58;26.30;1.00
871;DHT22;422;51.280;7.236;2023-06-22T14:04:26;26.30;1.00
871;DHT22;422;51.280;7.236;2023-06-22T14:06:56;26.30;29.30
871;DHT22;422;51.280;7.236;2023-06-22T14:09:23;26.30;1.00
871;DHT22;422;51.280;7.236;2023-06-22T14:11:51;26.30;1.00
871;DHT22;422;51.280;7.236;2023-06-22T14:14:18;26.60;1.00
871;DHT22;422;51.280;7.236;2023-06-22T14:16:46;26.20;1.00
871;DHT22;422;51.280;7.236;2023-06-22T14:19:16;26.40;1.00
871;DHT22;422;51.280;7.236;2023-06-22T14:21:43;26.30;1.00
871;DHT22;422;51.280;7.236;2023-06-22T14:24:12;25.80;1.00
871;DHT22;422;51.280;7.236;2023-06-22T14:26:40;25.80;1.00
871;DHT22;422;51.280;7.236;2023-06-22T14:29:07;25.80;1.00
871;DHT22;422;51.280;7.236;2023-06-22T14:31:35;25.40;1.00
871;DHT22;422;51.280;7.236;2023-06-22T14:34:02;25.10;2.50
871;DHT22;422;51.280;7.236;2023-06-22T14:36:31;25.00;37.10
871;DHT22;422;51.280;7.236;2023-06-22T14:38:59;24.80;88.10
871;DHT22;422;51.280;7.236;2023-06-22T14:41:29;24.60;99.90
871;DHT22;422;51.280;7.236;2023-06-22T14:43:56;24.20;99.90
871;DHT22;422;51.280;7.236;2023-06-22T14:46:24;24.30;1.00
871;DHT22;422;51.280;7.236;2023-06-22T14:48:51;24.40;99.90
871;DHT22;422;51.280;7.236;2023-06-22T14:51:19;24.40;99.90
871;DHT22;422;51.280;7.236;2023-06-22T14:53:47;24.80;99.90
871;DHT22;422;51.280;7.236;2023-06-22T14:56:15;24.90;99.90
871;DHT22;422;51.280;7.236;2023-06-22T14:58:44;25.00;99.90
871;DHT22;422;51.280;7.236;2023-06-22T15:01:12;24.70;99.90
871;DHT22;422;51.280;7.236;2023-06-22T15:03:40;24.60;99.90
871;DHT22;422;51.280;7.236;2023-06-22T15:06:08;24.50;99.90
871;DHT22;422;51.280;7.236;2023-06-22T15:08:37;24.50;99.90
871;DHT22;422;51.280;7.236;2023-06-22T15:11:05;24.20;99.90
871;DHT22;422;51.280;7.236;2023-06-22T15:13:33;23.80;99.90
871;DHT22;422;51.280;7.236;2023-06-22T15:16:03;23.70;99.90
871;DHT22;422;51.280;7.236;2023-06-22T15:18:31;23.50;1.00
871;DHT22;422;51.280;7.236;2023-06-22T15:20:59;23.20;99.90
871;DHT22;422;51.280;7.236;2023-06-22T15:23:27;23.10;1.00
871;DHT22;422;51.280;7.236;2023-06-22T15:25:56;22.90;1.00
871;DHT22;422;51.280;7.236;2023-06-22T15:28:23;22.80;1.00
871;DHT22;422;51.280;7.236;2023-06-22T15:30:51;22.70;1.00
871;DHT22;422;51.280;7.236;2023-06-22T15:33:20;22.60;99.90
871;DHT22;422;51.280;7.236;2023-06-22T15:35:47;22.40;99.90
871;DHT22;422;51.280;7.236;2023-06-22T15:38:15;22.20;99.90
871;DHT22;422;51.280;7.236;2023-06-22T15:40:42;22.00;1.00
871;DHT22;422;51.280;7.236;2023-06-22T15:43:10;21.80;1.00
871;DHT22;422;51.280;7.236;2023-06-22T15:45:39;21.70;1.00
871;DHT22;422;51.280;7.236;2023-06-22T15:48:06;21.70;1.00
871;DHT22;422;51.280;7.236;2023-06-22T15:50:35;21.60;99.90
871;DHT22;422;51.280;7.236;2023-06-22T15:53:02;21.50;1.00
871;DHT22;422;51.280;7.236;2023-06-22T15:55:30;21.60;99.90
871;DHT22;422;51.280;7.236;2023-06-22T15:57:58;21.70;1.00
871;DHT22;422;51.280;7.236;2023-06-22T16:00:27;21.60;1.00
871;DHT22;422;51.280;7.236;2023-06-22T16:02:54;21.60;99.90
871;DHT22;422;51.280;7.236;2023-06-22T16:05:22;21.60;99.90
871;DHT22;422;51.280;7.236;2023-06-22T16:07:54;21.50;1.00
871;DHT22;422;51.280;7.236;2023-06-22T16:10:22;21.40;68.80
871;DHT22;422;51.280;7.236;2023-06-22T16:12:50;21.30;99.90
871;DHT22;422;51.280;7.236;2023-06-22T16:15:18;21.10;99.90
871;DHT22;422;51.280;7.236;2023-06-22T16:17:45;21.00;99.90
871;DHT22;422;51.280;7.236;2023-06-22T16:20:13;20.90;99.90
871;DHT22;422;51.280;7.236;2023-06-22T16:22:42;20.90;99.90
871;DHT22;422;51.280;7.236;2023-06-22T16:25:13;20.80;99.90
871;DHT22;422;51.280;7.236;2023-06-22T16:27:44;20.80;99.90
871;DHT22;422;51.280;7.236;2023-06-22T16:30:12;20.70;99.90
871;DHT22;422;51.280;7.236;2023-06-22T16:32:39;20.70;99.90
871;DHT22;422;51.280;7.236;2023-06-22T16:35:17;20.70;99.90
871;DHT22;422;51.280;7.236;2023-06-22T16:37:45;20.70;99.90
871;DHT22;422;51.280;7.236;2023-06-22T16:40:14;20.70;99.90
871;DHT22;422;51.280;7.236;2023-06-22T16:42:46;20.70;99.90
871;DHT22;422;51.280;7.236;2023-06-22T16:45:14;20.80;99.90
871;DHT22;422;51.280;7.236;2023-06-22T16:47:42;20.80;99.90
871;DHT22;422;51.280;7.236;2023-06-22T16:50:09;20.90;99.90
871;DHT22;422;51.280;7.236;2023-06-22T16:52:37;20.90;99.90
871;DHT22;422;51.280;7.236;2023-06-22T16:55:06;20.90;99.90
871;DHT22;422;51.280;7.236;2023-06-22T16:57:36;20.90;99.90
871;DHT22;422;51.280;7.236;2023-06-22T17:00:04;21.00;99.90
871;DHT22;422;51.280;7.236;2023-06-22T17:02:41;21.00;99.90